createdAt,value
2022-10-12T00:00:17.848Z,99416.59
2022-10-12T00:02:19.651Z,99410.78
2022-10-12T00:04:21.465Z,99408.88
2022-10-12T00:06:24.111Z,99415.41
2022-10-12T00:08:25.612Z,99411.00
2022-10-12T00:10:27.137Z,99410.44
2022-10-12T00:12:28.712Z,99413.69
2022-10-12T00:14:30.355Z,99412.53
2022-10-12T00:16:31.871Z,99411.41
2022-10-12T00:18:34.651Z,99412.72
2022-10-12T00:20:36.669Z,99414.88
2022-10-12T00:22:38.297Z,99413.22
2022-10-12T00:24:42.853Z,99412.06
2022-10-12T00:26:44.671Z,99424.34
2022-10-12T00:28:47.273Z,99420.19
2022-10-12T00:30:48.861Z,99415.81
2022-10-12T00:32:50.405Z,99413.56
2022-10-12T00:34:52.267Z,99403.94
2022-10-12T00:36:55.356Z,99408.03
2022-10-12T00:38:57.502Z,99409.34
2022-10-12T00:40:59.119Z,99405.47
2022-10-12T00:43:00.704Z,99406.53
2022-10-12T00:45:02.558Z,99409.53
2022-10-12T00:47:12.434Z,99408.94
2022-10-12T00:49:20.613Z,99412.75
2022-10-12T00:51:23.034Z,99409.94
2022-10-12T00:53:28.524Z,99406.63
2022-10-12T00:55:35.751Z,99405.22
2022-10-12T00:57:38.118Z,99408.19
2022-10-12T00:59:49.829Z,99409.53
2022-10-12T01:01:51.755Z,99407.28
2022-10-12T01:03:54.023Z,99408.59
2022-10-12T01:05:56.108Z,99406.38
2022-10-12T01:07:59.682Z,99400.56
2022-10-12T01:10:02.282Z,99407.94
2022-10-12T01:12:07.071Z,99410.38
2022-10-12T01:14:08.794Z,99405.38
2022-10-12T01:16:20.343Z,99406.13
2022-10-12T01:18:33.377Z,99407.47
2022-10-12T01:20:50.259Z,99402.69
2022-10-12T01:23:03.849Z,99401.28
2022-10-12T01:25:15.496Z,99402.03
2022-10-12T01:27:33.197Z,99399.78
2022-10-12T01:29:59.138Z,99395.91
2022-10-12T01:32:30.106Z,99400.78
2022-10-12T01:34:53.076Z,99403.16
2022-10-12T01:37:08.262Z,99399.25
2022-10-12T01:39:21.797Z,99406.06
2022-10-12T01:41:34.620Z,99400.00
2022-10-12T01:43:40.110Z,99398.59
2022-10-12T01:45:41.601Z,99406.44
2022-10-12T01:47:48.269Z,99403.94
2022-10-12T01:49:49.901Z,99404.44
2022-10-12T01:52:01.717Z,99395.63
2022-10-12T01:54:26.299Z,99406.25
2022-10-12T01:56:39.729Z,99398.53
2022-10-12T01:59:29.064Z,99403.06
2022-10-12T02:01:41.359Z,99403.31
2022-10-12T02:03:50.737Z,99397.25
2022-10-12T02:06:00.635Z,99392.28
2022-10-12T02:08:28.253Z,99390.03
2022-10-12T02:10:37.334Z,99400.13
2022-10-12T02:12:40.881Z,99394.91
2022-10-12T02:14:47.295Z,99397.28
2022-10-12T02:16:54.266Z,99392.91
2022-10-12T02:18:57.762Z,99392.31
2022-10-12T02:21:00.849Z,99389.81
2022-10-12T02:23:03.440Z,99392.81
2022-10-12T02:25:09.339Z,99385.94
2022-10-12T02:27:14.199Z,99390.78
2022-10-12T02:29:20.666Z,99391.03
2022-10-12T02:31:47.639Z,99398.06
2022-10-12T02:34:00.216Z,99389.50
2022-10-12T02:36:19.476Z,99388.34
2022-10-12T02:38:47.008Z,99391.56
2022-10-12T02:40:55.105Z,99386.56
2022-10-12T02:43:10.323Z,99386.81
2022-10-12T02:45:14.001Z,99383.00
2022-10-12T02:47:18.005Z,99381.56
2022-10-12T02:49:22.329Z,99379.94
2022-10-12T02:51:24.985Z,99376.09
2022-10-12T02:53:29.096Z,99385.41
2022-10-12T02:55:31.961Z,99383.16
2022-10-12T02:57:33.646Z,99378.16
2022-10-12T02:59:35.225Z,99387.19
2022-10-12T03:01:36.844Z,99379.47
2022-10-12T03:03:41.276Z,99389.56
2022-10-12T03:05:42.877Z,99376.16
2022-10-12T03:07:44.396Z,99370.31
2022-10-12T03:09:46.054Z,99380.66
2022-10-12T03:11:48.104Z,99387.44
2022-10-12T03:13:53.850Z,99383.53
2022-10-12T03:16:02.040Z,99380.19
2022-10-12T03:18:04.103Z,99384.03
2022-10-12T03:20:06.457Z,99376.28
2022-10-12T03:22:08.417Z,99379.28
2022-10-12T03:24:10.382Z,99387.69
2022-10-12T03:26:12.360Z,99382.47
2022-10-12T03:28:14.034Z,99385.69
2022-10-12T03:30:15.944Z,99382.13
2022-10-12T03:32:17.989Z,99383.44
2022-10-12T03:34:19.636Z,99374.66
2022-10-12T03:36:21.441Z,99369.44
2022-10-12T03:38:23.405Z,99371.81
2022-10-12T03:40:25.219Z,99373.94
2022-10-12T03:42:26.760Z,99375.00
2022-10-12T03:44:28.283Z,99376.09
2022-10-12T03:46:29.864Z,99378.19
2022-10-12T03:48:31.516Z,99379.28
2022-10-12T03:50:35.057Z,99370.69
2022-10-12T03:52:36.813Z,99373.09
2022-10-12T03:54:38.584Z,99362.84
2022-10-12T03:56:40.702Z,99371.31
2022-10-12T03:58:42.237Z,99375.09
2022-10-12T04:00:43.789Z,99377.81
2022-10-12T04:02:45.376Z,99380.53
2022-10-12T04:04:46.884Z,99374.50
2022-10-12T04:06:48.710Z,99380.22
2022-10-12T04:08:51.094Z,99384.00
2022-10-12T04:10:52.924Z,99376.06
2022-10-12T04:12:54.402Z,99379.84
2022-10-12T04:14:55.861Z,99378.16
2022-10-12T04:16:57.439Z,99383.63
2022-10-12T04:18:58.922Z,99368.31
2022-10-12T04:21:01.252Z,99374.00
2022-10-12T04:23:02.961Z,99363.09
2022-10-12T04:25:04.849Z,99370.47
2022-10-12T04:27:06.603Z,99367.75
2022-10-12T04:29:08.158Z,99371.53
2022-10-12T04:31:09.993Z,99373.66
2022-10-12T04:33:11.856Z,99377.44
2022-10-12T04:35:13.841Z,99374.97
2022-10-12T04:37:15.401Z,99369.13
2022-10-12T04:39:17.141Z,99379.22
2022-10-12T04:41:19.913Z,99383.25
2022-10-12T04:43:21.582Z,99378.03
2022-10-12T04:45:23.240Z,99386.47
2022-10-12T04:47:27.976Z,99383.13
2022-10-12T04:49:29.738Z,99395.34
2022-10-12T04:51:32.140Z,99387.03
2022-10-12T04:53:33.797Z,99386.44
2022-10-12T04:55:37.702Z,99381.22
2022-10-12T04:57:41.956Z,99382.88
2022-10-12T04:59:43.692Z,99395.94
2022-10-12T05:01:45.507Z,99394.88
2022-10-12T05:03:47.190Z,99395.94
2022-10-12T05:05:48.991Z,99398.66
2022-10-12T05:07:50.868Z,99400.53
2022-10-12T05:09:52.400Z,99397.81
2022-10-12T05:11:54.053Z,99399.75
2022-10-12T05:13:55.681Z,99400.53
2022-10-12T05:15:57.578Z,99401.38
2022-10-12T05:17:59.475Z,99405.53
2022-10-12T05:20:00.980Z,99395.47
2022-10-12T05:22:02.733Z,99391.69
2022-10-12T05:24:04.641Z,99397.47
2022-10-12T05:26:09.238Z,99394.53
2022-10-12T05:28:10.972Z,99399.50
2022-10-12T05:30:13.061Z,99395.72
2022-10-12T05:32:15.563Z,99396.31
2022-10-12T05:34:17.089Z,99401.56
2022-10-12T05:36:18.811Z,99398.56
2022-10-12T05:38:20.460Z,99407.34
2022-10-12T05:40:22.042Z,99405.47
2022-10-12T05:42:23.550Z,99407.94
2022-10-12T05:44:25.026Z,99411.28
2022-10-12T05:46:29.371Z,99408.56
2022-10-12T05:48:31.289Z,99403.69
2022-10-12T05:50:33.027Z,99406.19
2022-10-12T05:52:34.966Z,99409.50
2022-10-12T05:54:36.567Z,99410.59
2022-10-12T05:56:38.321Z,99404.88
2022-10-12T05:58:39.885Z,99407.38
2022-10-12T06:00:41.424Z,99410.13
2022-10-12T06:02:43.096Z,99410.72
2022-10-12T06:04:44.936Z,99411.53
2022-10-12T06:06:46.613Z,99412.13
2022-10-12T06:08:48.223Z,99405.59
2022-10-12T06:10:51.672Z,99412.72
2022-10-12T06:12:53.279Z,99411.66
2022-10-12T06:14:55.218Z,99411.66
2022-10-12T06:16:58.284Z,99414.16
2022-10-12T06:18:59.745Z,99415.00
2022-10-12T06:21:21.505Z,99403.59
2022-10-12T06:23:23.006Z,99409.06
2022-10-12T06:25:24.683Z,99404.19
2022-10-12T06:27:26.340Z,99404.78
2022-10-12T06:29:28.062Z,99406.44
2022-10-12T06:31:29.655Z,99405.16
2022-10-12T06:33:31.161Z,99413.09
2022-10-12T06:35:33.365Z,99405.50
2022-10-12T06:37:49.670Z,99406.13
2022-10-12T06:39:52.291Z,99414.66
2022-10-12T06:41:54.673Z,99413.34
2022-10-12T06:43:56.169Z,99418.34
2022-10-12T06:46:02.034Z,99423.34
2022-10-12T06:48:04.886Z,99418.47
2022-10-12T06:50:08.921Z,99423.47
2022-10-12T06:52:10.557Z,99420.25
2022-10-12T06:54:12.161Z,99426.66
2022-10-12T06:56:14.347Z,99430.34
2022-10-12T06:58:15.890Z,99426.88
2022-10-12T07:00:17.790Z,99433.28
2022-10-12T07:02:19.602Z,99433.41
2022-10-12T07:04:21.233Z,99435.19
2022-10-12T07:06:23.025Z,99433.41
2022-10-12T07:08:25.033Z,99435.41
2022-10-12T07:10:27.134Z,99438.25
2022-10-12T07:12:28.829Z,99440.25
2022-10-12T07:14:30.281Z,99425.84
2022-10-12T07:16:32.147Z,99441.31
2022-10-12T07:18:34.240Z,99433.19
2022-10-12T07:20:35.909Z,99439.84
2022-10-12T07:22:37.755Z,99444.56
2022-10-12T07:24:39.269Z,99439.19
2022-10-12T07:26:41.058Z,99437.41
2022-10-12T07:28:42.818Z,99432.63
2022-10-12T07:30:45.180Z,99435.47
2022-10-12T07:32:47.792Z,99437.78
2022-10-12T07:34:49.452Z,99437.66
2022-10-12T07:36:59.789Z,99440.03
2022-10-12T07:39:01.935Z,99441.56
2022-10-12T07:41:04.638Z,99443.06
2022-10-12T07:43:15.581Z,99439.09
2022-10-12T07:45:18.209Z,99449.59
2022-10-12T07:47:22.713Z,99447.31
2022-10-12T07:49:24.204Z,99444.16
2022-10-12T07:51:25.928Z,99443.47
2022-10-12T07:53:27.525Z,99438.66
2022-10-12T07:55:32.310Z,99444.56
2022-10-12T07:57:34.040Z,99442.19
2022-10-12T07:59:35.737Z,99440.16
2022-10-12T08:01:37.566Z,99438.03
2022-10-12T08:03:41.810Z,99441.44
2022-10-12T08:05:43.653Z,99439.34
2022-10-12T08:07:45.297Z,99434.53
2022-10-12T08:09:48.643Z,99434.34
2022-10-12T08:11:50.489Z,99432.50
2022-10-12T08:13:52.114Z,99432.31
2022-10-12T08:15:53.706Z,99429.41
2022-10-12T08:17:55.389Z,99421.78
2022-10-12T08:19:56.912Z,99427.06
2022-10-12T08:21:58.843Z,99425.22
2022-10-12T08:24:00.901Z,99424.50
2022-10-12T08:26:03.523Z,99419.41
2022-10-12T08:28:05.870Z,99413.44
2022-10-12T08:30:08.278Z,99419.81
2022-10-12T08:32:09.939Z,99407.84
2022-10-12T08:34:11.500Z,99405.47
2022-10-12T08:36:14.368Z,99411.06
2022-10-12T08:38:16.461Z,99404.81
2022-10-12T08:40:25.819Z,99410.44
2022-10-12T08:42:44.928Z,99410.78
2022-10-12T08:45:06.657Z,99402.34
2022-10-12T08:47:17.841Z,99398.56
2022-10-12T08:49:24.200Z,99394.53
2022-10-12T08:51:30.949Z,99394.63
2022-10-12T08:53:43.574Z,99396.91
2022-10-12T08:55:46.870Z,99390.44
2022-10-12T08:57:50.049Z,99389.97
2022-10-12T08:59:52.217Z,99397.75
2022-10-12T09:02:34.533Z,99385.94
2022-10-12T09:05:15.288Z,99386.25
2022-10-12T09:07:42.191Z,99384.00
2022-10-12T09:10:08.095Z,99387.53
2022-10-12T09:12:35.928Z,99387.47
2022-10-12T09:14:40.294Z,99376.53
2022-10-12T09:16:46.291Z,99382.47
2022-10-12T09:18:53.875Z,99377.88
2022-10-12T09:20:57.082Z,99383.75
2022-10-12T09:23:04.933Z,99377.19
2022-10-12T09:25:14.463Z,99384.41
2022-10-12T09:27:19.699Z,99376.97
2022-10-12T09:29:28.247Z,99386.38
2022-10-12T09:31:52.115Z,99384.72
2022-10-12T09:33:57.503Z,99381.97
2022-10-12T09:35:59.296Z,99380.34
2022-10-12T09:38:01.782Z,99379.28
2022-10-12T09:40:04.259Z,99374.34
2022-10-12T09:42:06.063Z,99382.09
2022-10-12T09:44:15.357Z,99374.34
2022-10-12T09:46:48.286Z,99376.88
2022-10-12T09:49:00.291Z,99383.22
2022-10-12T09:51:03.929Z,99376.53
2022-10-12T09:53:36.047Z,99371.00
2022-10-12T09:55:37.901Z,99375.09
2022-10-12T09:57:41.917Z,99372.63
2022-10-12T09:59:45.006Z,99376.03
2022-10-12T10:02:13.932Z,99363.56
2022-10-12T10:04:23.160Z,99372.19
2022-10-12T10:06:26.102Z,99361.66
2022-10-12T10:08:27.986Z,99360.91
2022-10-12T10:10:30.832Z,99357.38
2022-10-12T10:12:32.928Z,99354.69
2022-10-12T10:14:35.938Z,99353.09
2022-10-12T10:16:49.187Z,99356.25
2022-10-12T10:18:54.056Z,99356.34
2022-10-12T10:21:00.849Z,99349.19
2022-10-12T10:23:03.927Z,99358.72
2022-10-12T10:25:06.766Z,99355.19
2022-10-12T10:27:29.372Z,99351.94
2022-10-12T10:29:38.956Z,99355.91
2022-10-12T10:31:40.773Z,99357.09
2022-10-12T10:33:44.033Z,99355.88
2022-10-12T10:35:58.962Z,99358.19
2022-10-12T10:38:00.965Z,99357.22
2022-10-12T10:40:03.298Z,99352.66
2022-10-12T10:42:24.838Z,99359.34
2022-10-12T10:44:33.236Z,99356.75
2022-10-12T10:46:37.337Z,99361.69
2022-10-12T10:48:53.277Z,99364.97
2022-10-12T10:51:02.097Z,99352.84
2022-10-12T10:53:18.632Z,99346.66
2022-10-12T10:55:23.442Z,99345.69
2022-10-12T10:57:28.114Z,99352.22
2022-10-12T10:59:39.454Z,99354.91
2022-10-12T11:01:51.470Z,99352.28
2022-10-12T11:04:07.918Z,99347.72
2022-10-12T11:06:32.488Z,99346.72
2022-10-12T11:08:36.176Z,99344.63
2022-10-12T11:10:44.999Z,99340.84
2022-10-12T11:12:51.866Z,99329.56
2022-10-12T11:15:12.889Z,99338.59
2022-10-12T11:17:24.081Z,99330.09
2022-10-12T11:19:41.115Z,99329.09
2022-10-12T11:21:51.853Z,99324.50
2022-10-12T11:24:17.365Z,99323.84
2022-10-12T11:26:27.760Z,99320.91
2022-10-12T11:28:32.662Z,99319.91
2022-10-12T11:30:46.392Z,99318.13
2022-10-12T11:32:58.145Z,99314.00
2022-10-12T11:35:02.693Z,99310.53
2022-10-12T11:37:21.334Z,99304.78
2022-10-12T11:39:38.274Z,99304.63
2022-10-12T11:42:09.723Z,99303.63
2022-10-12T11:44:30.395Z,99302.66
2022-10-12T11:47:04.452Z,99304.50
2022-10-12T11:49:14.758Z,99299.88
2022-10-12T11:51:16.345Z,99300.84
2022-10-12T11:53:28.617Z,99297.06
2022-10-12T11:55:37.672Z,99291.78
2022-10-12T11:57:40.102Z,99296.03
2022-10-12T11:59:49.810Z,99287.50
2022-10-12T12:02:11.207Z,99289.28
2022-10-12T12:04:43.351Z,99288.75
2022-10-12T12:06:52.158Z,99282.31
2022-10-12T12:08:53.824Z,99285.75
2022-10-12T12:11:19.463Z,99283.09
2022-10-12T12:13:23.833Z,99282.94
2022-10-12T12:15:25.424Z,99278.00
2022-10-12T12:17:32.212Z,99276.97
2022-10-12T12:19:36.762Z,99274.00
2022-10-12T12:22:15.841Z,99273.66
2022-10-12T12:24:18.721Z,99273.00
2022-10-12T12:26:23.405Z,99265.41
2022-10-12T12:28:25.231Z,99272.31
2022-10-12T12:30:36.716Z,99260.78
2022-10-12T12:32:59.450Z,99258.47
2022-10-12T12:35:01.311Z,99259.09
2022-10-12T12:37:12.799Z,99259.22
2022-10-12T12:39:35.154Z,99248.19
2022-10-12T12:42:02.033Z,99247.16
2022-10-12T12:44:04.666Z,99252.56
2022-10-12T12:46:13.229Z,99242.69
2022-10-12T12:48:43.853Z,99239.56
2022-10-12T12:50:45.729Z,99240.16
2022-10-12T12:52:47.431Z,99244.78
2022-10-12T12:54:58.256Z,99240.13
2022-10-12T12:57:30.291Z,99239.78
2022-10-12T12:59:59.261Z,99236.28
2022-10-12T13:02:23.782Z,99234.47
2022-10-12T13:04:40.085Z,99238.56
2022-10-12T13:07:20.066Z,99230.63
2022-10-12T13:09:32.826Z,99227.50
2022-10-12T13:11:43.625Z,99227.63
2022-10-12T13:14:03.264Z,99225.16
2022-10-12T13:16:57.106Z,99227.63
2022-10-12T13:19:00.758Z,99225.16
2022-10-12T13:21:06.695Z,99221.88
2022-10-12T13:23:14.930Z,99224.69
2022-10-12T13:25:40.212Z,99223.88
2022-10-12T13:27:53.565Z,99218.63
2022-10-12T13:30:28.309Z,99217.78
2022-10-12T13:33:06.492Z,99214.53
2022-10-12T13:35:40.409Z,99217.31
2022-10-12T13:37:42.141Z,99213.38
2022-10-12T13:39:47.326Z,99206.13
2022-10-12T13:41:53.465Z,99208.78
2022-10-12T13:44:00.656Z,99208.00
2022-10-12T13:46:02.789Z,99213.91
2022-10-12T13:48:05.102Z,99207.03
2022-10-12T13:50:17.056Z,99205.59
2022-10-12T13:52:38.883Z,99204.59
2022-10-12T13:54:49.143Z,99194.09
2022-10-12T13:57:21.297Z,99198.28
2022-10-12T13:59:25.478Z,99195.78
2022-10-12T14:01:27.707Z,99188.44
2022-10-12T14:03:41.634Z,99195.88
2022-10-12T14:05:45.685Z,99193.75
2022-10-12T14:07:49.504Z,99191.16
2022-10-12T14:09:55.335Z,99191.00
2022-10-12T14:11:57.409Z,99189.59
2022-10-12T14:14:00.651Z,99192.25
2022-10-12T14:16:05.390Z,99189.31
2022-10-12T14:18:35.466Z,99191.00
2022-10-12T14:20:39.177Z,99193.19
2022-10-12T14:22:49.620Z,99188.91
2022-10-12T14:25:10.636Z,99201.75
2022-10-12T14:27:22.890Z,99194.41
2022-10-12T14:29:43.124Z,99202.13
2022-10-12T14:31:49.722Z,99198.72
2022-10-12T14:33:51.364Z,99196.94
2022-10-12T14:36:15.317Z,99195.00
2022-10-12T14:38:37.368Z,99191.91
2022-10-12T14:40:39.540Z,99196.53
2022-10-12T14:42:59.522Z,99197.38
2022-10-12T14:45:03.935Z,99197.56
2022-10-12T14:47:16.429Z,99192.78
2022-10-12T14:49:25.035Z,99195.28
2022-10-12T14:51:27.082Z,99186.91
2022-10-12T14:53:29.657Z,99191.03
2022-10-12T14:55:33.556Z,99193.50
2022-10-12T14:57:35.302Z,99197.94
2022-10-12T14:59:36.886Z,99190.44
2022-10-12T15:01:41.819Z,99205.69
2022-10-12T15:03:44.936Z,99195.34
2022-10-12T15:05:47.135Z,99195.00
2022-10-12T15:07:52.472Z,99188.28
2022-10-12T15:09:58.613Z,99207.78
2022-10-12T15:12:00.309Z,99201.03
2022-10-12T15:14:08.117Z,99197.44
2022-10-12T15:16:21.993Z,99195.78
2022-10-12T15:18:25.226Z,99202.16
2022-10-12T15:20:29.907Z,99192.94
2022-10-12T15:22:31.622Z,99192.09
2022-10-12T15:24:35.590Z,99194.84
2022-10-12T15:26:42.081Z,99192.06
2022-10-12T15:28:45.205Z,99192.84
2022-10-12T15:31:15.319Z,99197.56
2022-10-12T15:33:11.463Z,99201.44
2022-10-12T15:35:25.590Z,99200.91
2022-10-12T15:37:31.146Z,99208.88
2022-10-12T15:39:33.130Z,99200.50
2022-10-12T15:41:34.889Z,99211.53
2022-10-12T15:43:39.593Z,99207.91
2022-10-12T15:45:43.788Z,99204.22
2022-10-12T15:47:50.332Z,99202.19
2022-10-12T15:49:51.909Z,99210.50
2022-10-12T15:51:55.031Z,99200.44
2022-10-12T15:53:56.855Z,99203.16
2022-10-12T15:55:58.431Z,99207.50
2022-10-12T15:58:00.517Z,99204.94
2022-10-12T16:00:02.571Z,99200.13
2022-10-12T16:02:13.763Z,99213.13
2022-10-12T16:04:15.772Z,99209.13
2022-10-12T16:06:17.651Z,99207.41
2022-10-12T16:08:19.242Z,99202.25
2022-10-12T16:10:24.886Z,99198.56
2022-10-12T16:12:26.954Z,99194.88
2022-10-12T16:14:28.818Z,99196.94
2022-10-12T16:16:32.279Z,99187.66
2022-10-12T16:18:33.989Z,99197.53
2022-10-12T16:20:37.578Z,99201.84
2022-10-12T16:22:40.398Z,99196.50
2022-10-12T16:24:42.295Z,99199.97
2022-10-12T16:26:45.134Z,99194.00
2022-10-12T16:28:47.313Z,99199.16
2022-10-12T16:30:49.917Z,99195.13
2022-10-12T16:32:52.298Z,99204.97
2022-10-12T16:34:54.115Z,99201.78
2022-10-12T16:36:56.192Z,99204.94
2022-10-12T16:38:58.107Z,99186.19
2022-10-12T16:40:59.842Z,99196.56
2022-10-12T16:43:01.633Z,99204.41
2022-10-12T16:45:03.721Z,99203.16
2022-10-12T16:47:05.790Z,99200.78
2022-10-12T16:49:07.513Z,99196.44
2022-10-12T16:51:10.553Z,99196.81
2022-10-12T16:53:12.335Z,99197.19
2022-10-12T16:55:14.342Z,99203.94
2022-10-12T16:57:16.380Z,99200.41
2022-10-12T16:59:18.361Z,99196.88
2022-10-12T17:01:20.137Z,99209.19
2022-10-12T17:03:21.936Z,99209.53
2022-10-12T17:05:23.691Z,99214.28
2022-10-12T17:07:26.095Z,99217.13
2022-10-12T17:09:28.192Z,99225.50
2022-10-12T17:11:29.833Z,99227.22
2022-10-12T17:13:32.845Z,99218.97
2022-10-12T17:15:38.566Z,99214.63
2022-10-12T17:17:40.200Z,99219.41
2022-10-12T17:19:41.973Z,99223.88
2022-10-12T17:21:45.020Z,99213.69
2022-10-12T17:23:46.685Z,99218.47
2022-10-12T17:25:49.126Z,99222.63
2022-10-12T17:27:50.644Z,99218.31
2022-10-12T17:29:52.449Z,99215.28
2022-10-12T17:31:55.321Z,99212.56
2022-10-12T17:33:58.081Z,99208.75
2022-10-12T17:35:59.515Z,99208.00
2022-10-12T17:38:01.207Z,99221.28
2022-10-12T17:40:03.681Z,99213.03
2022-10-12T17:42:06.459Z,99213.88
2022-10-12T17:44:08.618Z,99212.81
2022-10-12T17:46:10.248Z,99217.25
2022-10-12T17:48:14.406Z,99209.84
2022-10-12T17:50:17.834Z,99211.56
2022-10-12T17:52:19.560Z,99215.47
2022-10-12T17:54:22.432Z,99214.41
2022-10-12T17:56:24.074Z,99216.94
2022-10-12T17:58:25.569Z,99207.03
2022-10-12T18:00:27.523Z,99211.50
2022-10-12T18:02:29.616Z,99209.59
2022-10-12T18:04:31.293Z,99213.25
2022-10-12T18:06:33.866Z,99212.69
2022-10-12T18:08:35.966Z,99217.44
2022-10-12T18:10:41.585Z,99216.34
2022-10-12T18:12:45.158Z,99212.81
2022-10-12T18:14:47.289Z,99211.47
2022-10-12T18:16:48.877Z,99214.25
2022-10-12T18:18:52.488Z,99208.47
2022-10-12T18:20:54.321Z,99213.75
2022-10-12T18:22:56.179Z,99211.84
2022-10-12T18:24:58.083Z,99205.22
2022-10-12T18:26:59.777Z,99206.63
2022-10-12T18:29:02.046Z,99208.88
2022-10-12T18:31:04.258Z,99203.94
2022-10-12T18:33:06.032Z,99202.28
2022-10-12T18:35:09.883Z,99208.69
2022-10-12T18:37:11.798Z,99216.69
2022-10-12T18:39:13.474Z,99215.63
2022-10-12T18:41:18.154Z,99219.22
2022-10-12T18:43:19.950Z,99224.47
2022-10-12T18:45:21.769Z,99223.41
2022-10-12T18:47:24.548Z,99228.66
2022-10-12T18:49:26.489Z,99222.06
2022-10-12T18:51:31.000Z,99228.41
2022-10-12T18:53:34.242Z,99220.16
2022-10-12T18:55:38.232Z,99227.34
2022-10-12T18:57:40.211Z,99218.28
2022-10-12T18:59:41.995Z,99218.03
2022-10-12T19:01:45.059Z,99218.59
2022-10-12T19:03:47.961Z,99214.19
2022-10-12T19:05:49.421Z,99215.84
2022-10-12T19:07:51.048Z,99211.19
2022-10-12T19:09:52.922Z,99209.00
2022-10-12T19:11:54.419Z,99216.13
2022-10-12T19:14:02.531Z,99218.63
2022-10-12T19:16:15.292Z,99212.59
2022-10-12T19:18:16.835Z,99216.72
2022-10-12T19:20:18.512Z,99216.44
2022-10-12T19:22:20.879Z,99216.16
2022-10-12T19:24:22.762Z,99220.59
2022-10-12T19:26:27.163Z,99217.56
2022-10-12T19:28:28.775Z,99220.88
2022-10-12T19:30:31.454Z,99218.13
2022-10-12T19:32:33.676Z,99217.03
2022-10-12T19:34:35.549Z,99221.44
2022-10-12T19:36:38.867Z,99228.34
2022-10-12T19:38:41.161Z,99228.06
2022-10-12T19:40:43.400Z,99218.69
2022-10-12T19:42:47.714Z,99222.00
2022-10-12T19:44:49.707Z,99217.03
2022-10-12T19:46:53.511Z,99226.13
2022-10-12T19:48:57.552Z,99222.00
2022-10-12T19:51:01.619Z,99219.25
2022-10-12T19:53:03.575Z,99222.84
2022-10-12T19:55:05.906Z,99225.84
2022-10-12T19:57:07.609Z,99228.03
2022-10-12T19:59:09.520Z,99227.75
2022-10-12T20:01:19.833Z,99222.00
2022-10-12T20:03:21.812Z,99226.13
2022-10-12T20:05:23.365Z,99217.56
2022-10-12T20:07:25.118Z,99225.28
2022-10-12T20:09:26.768Z,99218.66
2022-10-12T20:11:28.946Z,99222.50
2022-10-12T20:13:30.798Z,99226.91
2022-10-12T20:15:32.483Z,99218.91
2022-10-12T20:17:34.155Z,99220.28
2022-10-12T20:19:36.851Z,99212.84
2022-10-12T20:21:38.458Z,99208.69
2022-10-12T20:23:42.710Z,99216.41
2022-10-12T20:25:47.100Z,99210.63
2022-10-12T20:27:49.272Z,99217.47
2022-10-12T20:29:51.074Z,99217.78
2022-10-12T20:31:52.718Z,99221.34
2022-10-12T20:33:56.132Z,99219.13
2022-10-12T20:35:58.145Z,99220.75
2022-10-12T20:38:00.166Z,99218.28
2022-10-12T20:40:02.014Z,99220.72
2022-10-12T20:42:03.640Z,99215.78
2022-10-12T20:44:05.457Z,99217.16
2022-10-12T20:46:10.773Z,99211.06
2022-10-12T20:48:12.299Z,99211.34
2022-10-12T20:50:14.805Z,99214.63
2022-10-12T20:52:16.752Z,99216.81
2022-10-12T20:54:19.078Z,99210.22
2022-10-12T20:56:20.735Z,99212.94
2022-10-12T20:58:26.969Z,99211.28
2022-10-12T21:00:29.438Z,99218.97
2022-10-12T21:02:31.174Z,99217.59
2022-10-12T21:04:38.173Z,99217.84
2022-10-12T21:06:42.621Z,99220.31
2022-10-12T21:08:44.818Z,99228.25
2022-10-12T21:10:47.421Z,99226.63
2022-10-12T21:12:48.916Z,99220.81
2022-10-12T21:14:50.533Z,99225.50
2022-10-12T21:16:52.919Z,99229.88
2022-10-12T21:18:55.236Z,99232.06
2022-10-12T21:20:58.852Z,99236.19
2022-10-12T21:23:00.391Z,99241.38
2022-10-12T21:25:02.005Z,99237.19
2022-10-12T21:27:04.791Z,99251.19
2022-10-12T21:29:06.745Z,99238.81
2022-10-12T21:31:09.052Z,99233.03
2022-10-12T21:33:10.576Z,99228.91
2022-10-12T21:35:12.545Z,99234.91
2022-10-12T21:37:14.245Z,99239.56
2022-10-12T21:39:17.301Z,99234.06
2022-10-12T21:41:21.901Z,99217.00
2022-10-12T21:43:23.566Z,99209.28
2022-10-12T21:45:25.058Z,99211.22
2022-10-12T21:47:26.521Z,99208.19
2022-10-12T21:49:28.309Z,99211.44
2022-10-12T21:51:31.344Z,99207.31
2022-10-12T21:53:36.563Z,99211.94
2022-10-12T21:55:38.246Z,99210.56
2022-10-12T21:57:39.740Z,99211.91
2022-10-12T21:59:41.751Z,99211.34
2022-10-12T22:01:43.423Z,99212.69
2022-10-12T22:03:45.961Z,99210.22
2022-10-12T22:05:47.596Z,99204.16
2022-10-12T22:07:49.251Z,99206.34
2022-10-12T22:09:50.790Z,99210.44
2022-10-12T22:11:54.158Z,99207.13
2022-10-12T22:14:01.299Z,99211.25
2022-10-12T22:16:10.163Z,99212.59
2022-10-12T22:18:11.874Z,99204.63
2022-10-12T22:20:13.453Z,99204.03
2022-10-12T22:22:20.387Z,99199.91
2022-10-12T22:24:22.338Z,99200.44
2022-10-12T22:26:24.534Z,99195.19
2022-10-12T22:28:30.266Z,99195.16
2022-10-12T22:30:32.129Z,99199.25
2022-10-12T22:32:34.153Z,99196.78
2022-10-12T22:34:35.937Z,99197.03
2022-10-12T22:36:37.709Z,99200.06
2022-10-12T22:38:41.875Z,99186.28
2022-10-12T22:40:57.581Z,99190.38
2022-10-12T22:42:59.338Z,99190.66
2022-10-12T22:45:01.061Z,99194.47
2022-10-12T22:47:02.821Z,99193.91
2022-10-12T22:49:04.545Z,99187.88
2022-10-12T22:51:07.008Z,99191.13
2022-10-12T22:53:08.598Z,99178.47
2022-10-12T22:55:10.339Z,99181.75
2022-10-12T22:57:12.505Z,99177.34
2022-10-12T22:59:15.617Z,99177.88
2022-10-12T23:01:17.622Z,99184.94
2022-10-12T23:03:19.239Z,99185.47
2022-10-12T23:05:21.386Z,99195.31
2022-10-12T23:07:22.913Z,99202.75
2022-10-12T23:09:24.571Z,99201.09
2022-10-12T23:11:28.629Z,99194.19
2022-10-12T23:13:30.847Z,99196.09
2022-10-12T23:15:35.278Z,99199.34
2022-10-12T23:17:36.876Z,99195.81
2022-10-12T23:19:38.669Z,99190.84
2022-10-12T23:21:41.170Z,99200.41
2022-10-12T23:23:44.253Z,99196.28
2022-10-12T23:25:45.825Z,99198.41
2022-10-12T23:27:47.452Z,99192.38
2022-10-12T23:29:49.529Z,99190.13
2022-10-12T23:31:51.209Z,99190.13
2022-10-12T23:34:01.892Z,99188.50
2022-10-12T23:36:12.087Z,99192.31
2022-10-12T23:38:13.657Z,99192.03
2022-10-12T23:40:15.553Z,99187.88
2022-10-12T23:42:17.607Z,99191.69
2022-10-12T23:44:19.515Z,99193.03
2022-10-12T23:46:21.201Z,99193.31
2022-10-12T23:48:23.621Z,99193.56
2022-10-12T23:50:25.316Z,99189.91
2022-10-12T23:52:27.023Z,99187.44
2022-10-12T23:54:28.935Z,99187.72
2022-10-12T23:56:30.596Z,99191.53
2022-10-12T23:58:35.919Z,99183.81
